Cleobury Mortimer, United Kingdom
Current Conditions -  °F | °C
As of 1:50 PM on Friday 28 Nov 2014 (Local Time) from EGOS Reporting Station
Haze Haze  
Wind Chill: 52°   Ceiling: 2200
Heat Index: 52°   Visibility: 5mi
Dew Point: 48°   Wind: 9mph
Humidity: 88%   Direction: 60°ENE
Pressure: 29.65"   Gusts: NA
Location:  52.38°N, 2.48°W
Report Text: EGOS 281350Z 06008KT 8000 HZ FEW008 BKN022 11/09 Q1004 WHT BECMG 7000 HZ BKN010 GRN
Loading
Personal Weather Stations






























Interactive Weather Map New forecast layout! Learn more

10-Day Weather Forecast

Advertisements
Track Severe Weather on mobile